ACA859 EGLL-CYYZ
Flight info
| Callsign | ACA859 |
|---|---|
| Flight time | N/A |
| Altitude | 28000 |
| Route | CPT L9 BUCGO/N0449F240 L9 ARPAK/N0487F320 DCT FELCA DCT FADZU DCT OFSOX DCT BANBA DCT DOLIP DCT LIMRI/M084F330 DCT 5230N02000W 5230N03000W 52N040W 4930N05000W DCT IBERG/N0483F340 N376B MIILS Q907 AGNOB DCT UDNOX RAGID6 |
| Aircraft | B77W/H-SDE1E2E3FGHIJ2J3J4J5M1RWXY/LB1D1 |
Departure
| Time | 2026-05-06 11:18 |
|---|---|
| Airport | London Heathrow Airport (EGLL) |
Arrival
| Time | N/A |
|---|---|
| Airport | Toronto Pearson International Airport (CYYZ) |
| Time | Latitude | Longitude | Altitude | Speed | Heading |
|---|---|---|---|---|---|
| 2026-05-06 10:27 | 51.47340 | -0.44194 | 98 ft | 0 kts | 270° |
| 2026-05-06 11:01 | 51.47340 | -0.44178 | 98 ft | 2 kts | 270° |
| 2026-05-06 11:01 | 51.47340 | -0.44156 | 98 ft | 0 kts | 270° |
| 2026-05-06 11:01 | 51.47340 | -0.44138 | 98 ft | 2 kts | 263° |
| 2026-05-06 11:02 | 51.47344 | -0.44115 | 98 ft | 2 kts | 245° |
| 2026-05-06 11:02 | 51.47351 | -0.44094 | 98 ft | 2 kts | 231° |
| 2026-05-06 11:02 | 51.47362 | -0.44077 | 98 ft | 2 kts | 217° |
| 2026-05-06 11:02 | 51.47375 | -0.44064 | 98 ft | 2 kts | 203° |
| 2026-05-06 11:03 | 51.47389 | -0.44057 | 98 ft | 2 kts | 188° |
| 2026-05-06 11:03 | 51.47399 | -0.44055 | 98 ft | 0 kts | 179° |
| 2026-05-06 11:03 | 51.47402 | -0.44056 | 98 ft | 0 kts | 179° |
| 2026-05-06 11:06 | 51.47377 | -0.44055 | 98 ft | 6 kts | 179° |
| 2026-05-06 11:07 | 51.47308 | -0.44049 | 98 ft | 12 kts | 176° |
| 2026-05-06 11:07 | 51.47217 | -0.44048 | 98 ft | 12 kts | 181° |
| 2026-05-06 11:07 | 51.47131 | -0.44047 | 98 ft | 12 kts | 178° |
| 2026-05-06 11:07 | 51.47050 | -0.44039 | 98 ft | 11 kts | 176° |
| 2026-05-06 11:08 | 51.46960 | -0.44039 | 98 ft | 14 kts | 181° |
| 2026-05-06 11:08 | 51.46849 | -0.44041 | 98 ft | 16 kts | 183° |
| 2026-05-06 11:08 | 51.46735 | -0.44047 | 98 ft | 15 kts | 185° |
| 2026-05-06 11:08 | 51.46666 | -0.44126 | 98 ft | 13 kts | 260° |
| 2026-05-06 11:09 | 51.46667 | -0.44285 | 98 ft | 14 kts | 269° |
| 2026-05-06 11:09 | 51.46665 | -0.44458 | 98 ft | 16 kts | 270° |
| 2026-05-06 11:09 | 51.46666 | -0.44641 | 98 ft | 16 kts | 271° |
| 2026-05-06 11:09 | 51.46664 | -0.44833 | 98 ft | 18 kts | 270° |
| 2026-05-06 11:10 | 51.46661 | -0.45063 | 98 ft | 22 kts | 271° |
| 2026-05-06 11:10 | 51.46663 | -0.45333 | 98 ft | 26 kts | 269° |
| 2026-05-06 11:10 | 51.46661 | -0.45641 | 98 ft | 29 kts | 270° |
| 2026-05-06 11:10 | 51.46661 | -0.45985 | 98 ft | 32 kts | 270° |
| 2026-05-06 11:11 | 51.46659 | -0.46361 | 98 ft | 32 kts | 270° |
| 2026-05-06 11:11 | 51.46657 | -0.46636 | 98 ft | 22 kts | 269° |
| 2026-05-06 11:11 | 51.46656 | -0.46864 | 98 ft | 18 kts | 270° |
| 2026-05-06 11:11 | 51.46655 | -0.47068 | 98 ft | 17 kts | 269° |
| 2026-05-06 11:12 | 51.46654 | -0.47258 | 98 ft | 17 kts | 271° |
| 2026-05-06 11:12 | 51.46652 | -0.47459 | 98 ft | 18 kts | 267° |
| 2026-05-06 11:12 | 51.46650 | -0.47662 | 98 ft | 18 kts | 271° |
| 2026-05-06 11:12 | 51.46653 | -0.47887 | 98 ft | 21 kts | 271° |
| 2026-05-06 11:13 | 51.46654 | -0.48130 | 98 ft | 21 kts | 270° |
| 2026-05-06 11:13 | 51.46653 | -0.48368 | 98 ft | 20 kts | 269° |
| 2026-05-06 11:13 | 51.46652 | -0.48539 | 98 ft | 9 kts | 270° |
| 2026-05-06 11:13 | 51.46653 | -0.48601 | 98 ft | 2 kts | 271° |
| 2026-05-06 11:14 | 51.46653 | -0.48636 | 98 ft | 3 kts | 269° |
| 2026-05-06 11:14 | 51.46651 | -0.48678 | 98 ft | 3 kts | 265° |
| 2026-05-06 11:14 | 51.46643 | -0.48718 | 98 ft | 5 kts | 238° |
| 2026-05-06 11:14 | 51.46603 | -0.48762 | 98 ft | 8 kts | 202° |
| 2026-05-06 11:15 | 51.46548 | -0.48778 | 98 ft | 8 kts | 185° |
| 2026-05-06 11:15 | 51.46493 | -0.48746 | 98 ft | 7 kts | 129° |
| 2026-05-06 11:15 | 51.46478 | -0.48666 | 98 ft | 7 kts | 91° |
| 2026-05-06 11:15 | 51.46478 | -0.48634 | 98 ft | 0 kts | 89° |
| 2026-05-06 11:16 | 51.46478 | -0.48595 | 98 ft | 13 kts | 89° |
| 2026-05-06 11:17 | 51.46484 | -0.48081 | 98 ft | 79 kts | 88° |
| 2026-05-06 11:17 | 51.46487 | -0.46864 | 98 ft | 138 kts | 89° |
| 2026-05-06 11:17 | 51.46489 | -0.45051 | 169 ft | 181 kts | 87° |
| 2026-05-06 11:17 | 51.46475 | -0.42944 | 618 ft | 194 kts | 91° |
| 2026-05-06 11:18 | 51.46252 | -0.40784 | 1366 ft | 201 kts | 105° |
| 2026-05-06 11:18 | 51.45564 | -0.38877 | 1925 ft | 206 kts | 130° |
| 2026-05-06 11:18 | 51.44337 | -0.37479 | 2152 ft | 226 kts | 153° |
| 2026-05-06 11:18 | 51.42811 | -0.36755 | 2592 ft | 236 kts | 173° |
| 2026-05-06 11:19 | 51.41158 | -0.36902 | 3054 ft | 242 kts | 195° |
| 2026-05-06 11:19 | 51.39580 | -0.37969 | 3398 ft | 255 kts | 215° |
| 2026-05-06 11:19 | 51.38251 | -0.39841 | 3917 ft | 258 kts | 233° |
| 2026-05-06 11:19 | 51.37260 | -0.42317 | 4253 ft | 270 kts | 250° |
| 2026-05-06 11:20 | 51.36637 | -0.45130 | 4929 ft | 269 kts | 258° |
| 2026-05-06 11:20 | 51.36485 | -0.48075 | 5489 ft | 269 kts | 279° |
| 2026-05-06 11:20 | 51.36731 | -0.51103 | 5880 ft | 280 kts | 283° |
| 2026-05-06 11:20 | 51.37193 | -0.54158 | 5976 ft | 285 kts | 289° |
| 2026-05-06 11:21 | 51.37741 | -0.57232 | 5979 ft | 288 kts | 289° |
| 2026-05-06 11:21 | 51.38294 | -0.60315 | 5979 ft | 289 kts | 289° |
| 2026-05-06 11:21 | 51.38849 | -0.63414 | 5986 ft | 292 kts | 289° |
| 2026-05-06 11:21 | 51.39420 | -0.66600 | 6363 ft | 302 kts | 288° |
| 2026-05-06 11:22 | 51.39973 | -0.69701 | 7327 ft | 295 kts | 288° |
| 2026-05-06 11:22 | 51.40535 | -0.72855 | 8049 ft | 298 kts | 288° |
| 2026-05-06 11:22 | 51.41103 | -0.76050 | 8719 ft | 302 kts | 288° |
| 2026-05-06 11:22 | 51.41681 | -0.79300 | 9383 ft | 305 kts | 287° |
| 2026-05-06 11:23 | 51.42263 | -0.82587 | 10055 ft | 308 kts | 287° |
| 2026-05-06 11:23 | 51.42848 | -0.85890 | 10707 ft | 311 kts | 287° |
| 2026-05-06 11:23 | 51.43441 | -0.89249 | 11261 ft | 318 kts | 287° |
| 2026-05-06 11:23 | 51.44056 | -0.92735 | 11576 ft | 333 kts | 287° |
| 2026-05-06 11:24 | 51.44699 | -0.96383 | 11889 ft | 348 kts | 287° |
| 2026-05-06 11:24 | 51.45367 | -1.00187 | 12224 ft | 362 kts | 287° |
| 2026-05-06 11:24 | 51.46057 | -1.04133 | 12657 ft | 373 kts | 287° |
| 2026-05-06 11:24 | 51.46760 | -1.08157 | 13307 ft | 378 kts | 287° |
| 2026-05-06 11:25 | 51.47471 | -1.12244 | 14002 ft | 381 kts | 287° |
| 2026-05-06 11:25 | 51.48198 | -1.16348 | 14658 ft | 385 kts | 289° |
| 2026-05-06 11:25 | 51.49216 | -1.20167 | 15292 ft | 387 kts | 299° |
| 2026-05-06 11:25 | 51.50672 | -1.23805 | 15945 ft | 390 kts | 305° |
| 2026-05-06 11:26 | 51.52261 | -1.27389 | 16562 ft | 395 kts | 306° |
| 2026-05-06 11:26 | 51.53855 | -1.30979 | 17205 ft | 398 kts | 306° |
| 2026-05-06 11:26 | 51.55467 | -1.34612 | 17853 ft | 401 kts | 306° |
| 2026-05-06 11:26 | 51.57086 | -1.38279 | 18460 ft | 404 kts | 304° |
| 2026-05-06 11:27 | 51.58468 | -1.42212 | 19037 ft | 408 kts | 294° |
| 2026-05-06 11:27 | 51.59414 | -1.46506 | 19604 ft | 412 kts | 284° |
| 2026-05-06 11:27 | 51.60033 | -1.51007 | 20186 ft | 415 kts | 282° |
| 2026-05-06 11:27 | 51.60618 | -1.55554 | 20767 ft | 418 kts | 282° |
| 2026-05-06 11:28 | 51.61203 | -1.60131 | 21319 ft | 421 kts | 282° |
| 2026-05-06 11:28 | 51.61793 | -1.64753 | 21872 ft | 424 kts | 282° |
| 2026-05-06 11:28 | 51.62384 | -1.69411 | 22423 ft | 426 kts | 281° |
| 2026-05-06 11:28 | 51.62980 | -1.74111 | 22955 ft | 429 kts | 281° |
| 2026-05-06 11:29 | 51.63575 | -1.78831 | 23443 ft | 433 kts | 281° |
| 2026-05-06 11:29 | 51.64173 | -1.83581 | 23901 ft | 437 kts | 281° |
| 2026-05-06 11:29 | 51.64774 | -1.88382 | 24356 ft | 440 kts | 281° |
| 2026-05-06 11:29 | 51.65377 | -1.93212 | 24856 ft | 442 kts | 281° |
| 2026-05-06 11:30 | 51.65983 | -1.98078 | 25340 ft | 445 kts | 281° |
| 2026-05-06 11:30 | 51.66590 | -2.02973 | 25771 ft | 448 kts | 281° |
| 2026-05-06 11:30 | 51.67199 | -2.07904 | 26206 ft | 451 kts | 281° |
| 2026-05-06 11:30 | 51.67811 | -2.12878 | 26634 ft | 454 kts | 281° |
| 2026-05-06 11:31 | 51.68425 | -2.17886 | 27037 ft | 457 kts | 281° |
| 2026-05-06 11:31 | 51.69039 | -2.22911 | 27449 ft | 460 kts | 281° |
| 2026-05-06 11:31 | 51.69658 | -2.27996 | 27855 ft | 463 kts | 281° |
| 2026-05-06 11:31 | 51.70277 | -2.33099 | 28272 ft | 465 kts | 281° |
| 2026-05-06 11:32 | 51.70895 | -2.38218 | 28682 ft | 467 kts | 281° |
| 2026-05-06 11:32 | 51.71514 | -2.43364 | 29069 ft | 470 kts | 281° |
| 2026-05-06 11:32 | 51.72135 | -2.48543 | 29497 ft | 471 kts | 281° |
| 2026-05-06 11:32 | 51.72753 | -2.53721 | 29960 ft | 471 kts | 281° |
| 2026-05-06 11:33 | 51.73378 | -2.58977 | 30010 ft | 478 kts | 281° |
| 2026-05-06 11:33 | 51.74623 | -2.69520 | 30013 ft | 480 kts | 280° |